sensor_id;sensor_type;location;lat;lon;timestamp;pressure;altitude;pressure_sealevel;temperature;humidity
56514;BME280;62152;52.078;8.414;2024-03-02T00:00:59;98857.69;;;17.86;56.58
56514;BME280;62152;52.078;8.414;2024-03-02T00:05:00;98858.84;;;17.89;56.62
56514;BME280;62152;52.078;8.414;2024-03-02T00:09:04;98851.03;;;17.87;56.56
56514;BME280;62152;52.078;8.414;2024-03-02T00:13:05;98856.13;;;17.85;56.73
56514;BME280;62152;52.078;8.414;2024-03-02T00:17:21;98849.88;;;17.85;56.53
56514;BME280;62152;52.078;8.414;2024-03-02T00:21:27;98842.81;;;17.84;56.47
56514;BME280;62152;52.078;8.414;2024-03-02T00:25:39;98844.38;;;17.85;56.75
56514;BME280;62152;52.078;8.414;2024-03-02T00:29:40;98825.56;;;17.83;56.50
56514;BME280;62152;52.078;8.414;2024-03-02T00:33:42;98822.44;;;17.85;56.61
56514;BME280;62152;52.078;8.414;2024-03-02T00:37:43;98818.53;;;17.86;56.67
56514;BME280;62152;52.078;8.414;2024-03-02T00:41:46;98820.84;;;17.84;56.50
56514;BME280;62152;52.078;8.414;2024-03-02T00:45:47;98808.72;;;17.85;56.47
56514;BME280;62152;52.078;8.414;2024-03-02T00:49:48;98809.50;;;17.82;56.79
56514;BME280;62152;52.078;8.414;2024-03-02T00:53:49;98810.69;;;17.81;56.63
56514;BME280;62152;52.078;8.414;2024-03-02T00:57:53;98799.69;;;17.84;56.55
56514;BME280;62152;52.078;8.414;2024-03-02T01:01:54;98806.78;;;17.82;56.62
56514;BME280;62152;52.078;8.414;2024-03-02T01:05:55;98812.25;;;17.82;56.65
56514;BME280;62152;52.078;8.414;2024-03-02T01:09:55;98812.25;;;17.82;56.74
56514;BME280;62152;52.078;8.414;2024-03-02T01:13:59;98809.09;;;17.83;56.77
56514;BME280;62152;52.078;8.414;2024-03-02T01:18:00;98813.44;;;17.81;56.80
56514;BME280;62152;52.078;8.414;2024-03-02T01:22:00;98814.63;;;17.80;56.67
56514;BME280;62152;52.078;8.414;2024-03-02T01:26:01;98811.50;;;17.77;57.00
56514;BME280;62152;52.078;8.414;2024-03-02T01:30:06;98809.13;;;17.80;56.83
56514;BME280;62152;52.078;8.414;2024-03-02T01:34:07;98805.22;;;17.77;57.03
56514;BME280;62152;52.078;8.414;2024-03-02T01:38:08;98805.22;;;17.81;56.87
56514;BME280;62152;52.078;8.414;2024-03-02T01:42:09;98802.88;;;17.79;56.90
56514;BME280;62152;52.078;8.414;2024-03-02T01:46:12;98799.72;;;17.77;56.73
56514;BME280;62152;52.078;8.414;2024-03-02T01:50:13;98800.13;;;17.75;57.02
56514;BME280;62152;52.078;8.414;2024-03-02T01:54:14;98793.47;;;17.76;56.73
56514;BME280;62152;52.078;8.414;2024-03-02T01:58:15;98794.25;;;17.77;56.98
56514;BME280;62152;52.078;8.414;2024-03-02T02:02:19;98782.50;;;17.80;56.94
56514;BME280;62152;52.078;8.414;2024-03-02T02:06:20;98779.75;;;17.76;57.00
56514;BME280;62152;52.078;8.414;2024-03-02T02:10:21;98764.47;;;17.79;57.00
56514;BME280;62152;52.078;8.414;2024-03-02T02:14:22;98754.28;;;17.80;56.91
56514;BME280;62152;52.078;8.414;2024-03-02T02:18:26;98767.63;;;17.77;56.90
56514;BME280;62152;52.078;8.414;2024-03-02T02:22:29;98756.25;;;17.75;56.89
56514;BME280;62152;52.078;8.414;2024-03-02T02:26:30;98748.81;;;17.76;57.20
56514;BME280;62152;52.078;8.414;2024-03-02T02:30:32;98750.75;;;17.79;56.79
56514;BME280;62152;52.078;8.414;2024-03-02T02:34:32;98741.75;;;17.75;56.94
56514;BME280;62152;52.078;8.414;2024-03-02T02:38:39;98735.50;;;17.74;57.01
56514;BME280;62152;52.078;8.414;2024-03-02T02:42:40;98730.00;;;17.74;56.91
56514;BME280;62152;52.078;8.414;2024-03-02T02:46:41;98726.09;;;17.75;57.09
56514;BME280;62152;52.078;8.414;2024-03-02T02:50:42;98720.22;;;17.73;57.03
56514;BME280;62152;52.078;8.414;2024-03-02T02:54:45;98722.56;;;17.75;57.05
56514;BME280;62152;52.078;8.414;2024-03-02T02:58:46;98715.13;;;17.75;56.99
56514;BME280;62152;52.078;8.414;2024-03-02T03:02:48;98707.28;;;17.74;56.89
56514;BME280;62152;52.078;8.414;2024-03-02T03:06:49;98712.00;;;17.73;56.95
56514;BME280;62152;52.078;8.414;2024-03-02T03:10:53;98710.41;;;17.76;57.06
56514;BME280;62152;52.078;8.414;2024-03-02T03:14:53;98705.34;;;17.74;57.13
56514;BME280;62152;52.078;8.414;2024-03-02T03:18:54;98709.63;;;17.75;57.16
56514;BME280;62152;52.078;8.414;2024-03-02T03:22:55;98708.06;;;17.74;57.04
56514;BME280;62152;52.078;8.414;2024-03-02T03:26:58;98702.97;;;17.76;57.06
56514;BME280;62152;52.078;8.414;2024-03-02T03:30:59;98712.00;;;17.73;57.24
56514;BME280;62152;52.078;8.414;2024-03-02T03:35:00;98716.72;;;17.73;57.04
56514;BME280;62152;52.078;8.414;2024-03-02T03:39:00;98719.81;;;17.75;57.15
56514;BME280;62152;52.078;8.414;2024-03-02T03:43:04;98722.19;;;17.73;57.17
56514;BME280;62152;52.078;8.414;2024-03-02T03:47:05;98720.22;;;17.73;57.02
56514;BME280;62152;52.078;8.414;2024-03-02T03:51:06;98723.34;;;17.75;57.25
56514;BME280;62152;52.078;8.414;2024-03-02T03:55:07;98722.19;;;17.73;57.15
56514;BME280;62152;52.078;8.414;2024-03-02T03:59:11;98718.25;;;17.70;57.19
56514;BME280;62152;52.078;8.414;2024-03-02T04:03:12;98722.56;;;17.75;57.31
56514;BME280;62152;52.078;8.414;2024-03-02T04:07:12;98724.53;;;17.74;57.07
56514;BME280;62152;52.078;8.414;2024-03-02T04:11:13;98718.25;;;17.70;57.33
56514;BME280;62152;52.078;8.414;2024-03-02T04:15:17;98716.69;;;17.69;57.40
56514;BME280;62152;52.078;8.414;2024-03-02T04:19:17;98713.59;;;17.71;57.14
56514;BME280;62152;52.078;8.414;2024-03-02T04:23:18;98716.69;;;17.69;57.16
56514;BME280;62152;52.078;8.414;2024-03-02T04:27:19;98726.09;;;17.68;57.23
56514;BME280;62152;52.078;8.414;2024-03-02T04:31:22;98716.31;;;17.67;57.25
56514;BME280;62152;52.078;8.414;2024-03-02T04:35:23;98720.19;;;17.70;57.46
56514;BME280;62152;52.078;8.414;2024-03-02T04:39:24;98721.38;;;17.69;57.17
56514;BME280;62152;52.078;8.414;2024-03-02T04:43:25;98730.41;;;17.73;57.34
56514;BME280;62152;52.078;8.414;2024-03-02T04:47:28;98732.34;;;17.69;57.53
56514;BME280;62152;52.078;8.414;2024-03-02T04:51:29;98748.03;;;17.68;57.48
56514;BME280;62152;52.078;8.414;2024-03-02T04:55:30;98741.75;;;17.75;57.29
56514;BME280;62152;52.078;8.414;2024-03-02T04:59:30;98739.41;;;17.73;57.38
56514;BME280;62152;52.078;8.414;2024-03-02T05:03:34;98753.13;;;17.66;57.62
56514;BME280;62152;52.078;8.414;2024-03-02T05:07:34;98751.16;;;17.70;57.41
56514;BME280;62152;52.078;8.414;2024-03-02T05:11:35;98753.50;;;17.68;57.30
56514;BME280;62152;52.078;8.414;2024-03-02T05:15:36;98762.94;;;17.71;57.21
56514;BME280;62152;52.078;8.414;2024-03-02T05:19:39;98759.00;;;17.68;57.33
56514;BME280;62152;52.078;8.414;2024-03-02T05:23:40;98758.59;;;17.70;57.37
56514;BME280;62152;52.078;8.414;2024-03-02T05:27:41;98759.00;;;17.68;57.52
56514;BME280;62152;52.078;8.414;2024-03-02T05:31:42;98757.44;;;17.67;57.39
56514;BME280;62152;52.078;8.414;2024-03-02T05:35:46;98761.72;;;17.68;57.40
56514;BME280;62152;52.078;8.414;2024-03-02T05:39:47;98760.56;;;17.69;57.60
56514;BME280;62152;52.078;8.414;2024-03-02T05:43:48;98763.69;;;17.68;57.45
56514;BME280;62152;52.078;8.414;2024-03-02T05:47:48;98762.91;;;17.67;57.63
56514;BME280;62152;52.078;8.414;2024-03-02T05:51:52;98772.31;;;17.70;57.42
56514;BME280;62152;52.078;8.414;2024-03-02T05:55:53;98771.19;;;17.71;57.53
56514;BME280;62152;52.078;8.414;2024-03-02T05:59:53;98765.28;;;17.65;57.49
56514;BME280;62152;52.078;8.414;2024-03-02T06:03:54;98772.69;;;17.68;57.56
56514;BME280;62152;52.078;8.414;2024-03-02T06:08:00;98776.22;;;17.76;57.47
56514;BME280;62152;52.078;8.414;2024-03-02T06:12:01;98782.53;;;17.73;57.88
56514;BME280;62152;52.078;8.414;2024-03-02T06:16:02;98780.97;;;17.72;57.93
56514;BME280;62152;52.078;8.414;2024-03-02T06:20:03;98779.41;;;17.71;58.28
56514;BME280;62152;52.078;8.414;2024-03-02T06:24:07;98780.94;;;17.68;58.02
56514;BME280;62152;52.078;8.414;2024-03-02T06:28:08;98784.03;;;17.70;57.90
56514;BME280;62152;52.078;8.414;2024-03-02T06:32:08;98789.53;;;17.70;57.92
56514;BME280;62152;52.078;8.414;2024-03-02T06:36:09;98804.84;;;17.71;57.76
56514;BME280;62152;52.078;8.414;2024-03-02T06:40:13;98798.94;;;17.69;57.78
56514;BME280;62152;52.078;8.414;2024-03-02T06:44:13;98803.66;;;17.69;57.91
56514;BME280;62152;52.078;8.414;2024-03-02T06:48:14;98803.69;;;17.72;57.61
56514;BME280;62152;52.078;8.414;2024-03-02T06:52:15;98804.81;;;17.68;57.51
56514;BME280;62152;52.078;8.414;2024-03-02T06:56:18;98811.50;;;17.67;57.34
56514;BME280;62152;52.078;8.414;2024-03-02T07:00:19;98809.53;;;17.67;57.46
56514;BME280;62152;52.078;8.414;2024-03-02T07:04:20;98811.50;;;17.67;57.13
56514;BME280;62152;52.078;8.414;2024-03-02T07:08:21;98822.06;;;17.68;57.06
56514;BME280;62152;52.078;8.414;2024-03-02T07:12:24;98818.91;;;17.70;56.91
56514;BME280;62152;52.078;8.414;2024-03-02T07:16:25;98827.53;;;17.68;56.80
56514;BME280;62152;52.078;8.414;2024-03-02T07:20:26;98826.78;;;17.64;56.70
56514;BME280;62152;52.078;8.414;2024-03-02T07:24:26;98831.06;;;17.69;56.48
56514;BME280;62152;52.078;8.414;2024-03-02T07:28:31;98835.78;;;17.68;56.56
56514;BME280;62152;52.078;8.414;2024-03-02T07:32:32;98839.69;;;17.67;56.41
56514;BME280;62152;52.078;8.414;2024-03-02T07:36:36;98837.34;;;17.62;56.29
56514;BME280;62152;52.078;8.414;2024-03-02T07:40:36;98842.50;;;17.03;55.33
56514;BME280;62152;52.078;8.414;2024-03-02T07:44:40;98851.50;;;17.14;54.31
56514;BME280;62152;52.078;8.414;2024-03-02T07:48:42;98842.09;;;16.80;54.99
56514;BME280;62152;52.078;8.414;2024-03-02T07:52:43;98846.00;;;17.39;54.55
56514;BME280;62152;52.078;8.414;2024-03-02T07:56:44;98846.78;;;17.50;54.06
56514;BME280;62152;52.078;8.414;2024-03-02T08:00:48;98844.44;;;17.53;54.30
56514;BME280;62152;52.078;8.414;2024-03-02T08:04:49;98849.13;;;17.48;54.50
56514;BME280;62152;52.078;8.414;2024-03-02T08:08:50;98849.16;;;17.13;53.74
56514;BME280;62152;52.078;8.414;2024-03-02T08:12:51;98853.78;;;16.55;53.20
56514;BME280;62152;52.078;8.414;2024-03-02T08:16:54;98850.59;;;16.42;52.63
56514;BME280;62152;52.078;8.414;2024-03-02T08:20:55;98853.78;;;16.62;53.51
56514;BME280;62152;52.078;8.414;2024-03-02T08:24:56;98859.22;;;16.52;52.60
56514;BME280;62152;52.078;8.414;2024-03-02T08:28:57;98857.69;;;16.54;52.34
56514;BME280;62152;52.078;8.414;2024-03-02T08:33:00;98867.81;;;16.43;51.75
56514;BME280;62152;52.078;8.414;2024-03-02T08:37:01;98860.00;;;16.49;51.65
56514;BME280;62152;52.078;8.414;2024-03-02T08:41:03;98856.97;;;16.75;52.84
56514;BME280;62152;52.078;8.414;2024-03-02T08:45:04;98866.38;;;17.31;54.64
56514;BME280;62152;52.078;8.414;2024-03-02T08:49:08;98873.41;;;17.64;54.01
56514;BME280;62152;52.078;8.414;2024-03-02T08:53:09;98868.72;;;17.72;54.33
56514;BME280;62152;52.078;8.414;2024-03-02T08:57:10;98878.47;;;17.76;54.42
56514;BME280;62152;52.078;8.414;2024-03-02T09:01:11;98875.72;;;17.76;54.70
56514;BME280;62152;52.078;8.414;2024-03-02T09:05:15;98883.19;;;17.76;54.95
56514;BME280;62152;52.078;8.414;2024-03-02T09:09:16;98869.84;;;17.82;55.06
56514;BME280;62152;52.078;8.414;2024-03-02T09:13:16;98882.78;;;17.63;55.46
56514;BME280;62152;52.078;8.414;2024-03-02T09:17:17;98877.72;;;17.58;55.41
56514;BME280;62152;52.078;8.414;2024-03-02T09:21:21;98877.31;;;17.56;55.50
56514;BME280;62152;52.078;8.414;2024-03-02T09:25:21;98869.50;;;17.58;55.28
56514;BME280;62152;52.078;8.414;2024-03-02T09:29:22;98865.19;;;17.57;55.43
56514;BME280;62152;52.078;8.414;2024-03-02T09:33:23;98876.53;;;17.59;55.33
56514;BME280;62152;52.078;8.414;2024-03-02T09:37:26;98871.06;;;17.59;55.23
56514;BME280;62152;52.078;8.414;2024-03-02T09:41:27;98871.44;;;17.61;55.08
56514;BME280;62152;52.078;8.414;2024-03-02T09:45:30;98874.16;;;17.61;55.32
56514;BME280;62152;52.078;8.414;2024-03-02T09:49:30;98866.72;;;17.62;55.08
56514;BME280;62152;52.078;8.414;2024-03-02T09:53:34;98862.44;;;17.64;55.18
56514;BME280;62152;52.078;8.414;2024-03-02T09:57:35;98871.03;;;17.66;55.07
56514;BME280;62152;52.078;8.414;2024-03-02T10:01:36;98874.97;;;17.65;55.18
56514;BME280;62152;52.078;8.414;2024-03-02T10:05:36;98874.19;;;17.65;55.13
56514;BME280;62152;52.078;8.414;2024-03-02T10:09:41;98871.03;;;17.66;55.12
56514;BME280;62152;52.078;8.414;2024-03-02T10:13:42;98876.53;;;17.66;54.95
56514;BME280;62152;52.078;8.414;2024-03-02T10:17:43;98883.56;;;17.67;55.12
56514;BME280;62152;52.078;8.414;2024-03-02T10:21:44;98883.53;;;17.89;54.82
56514;BME280;62152;52.078;8.414;2024-03-02T10:25:48;98883.94;;;17.94;54.84
56514;BME280;62152;52.078;8.414;2024-03-02T10:29:49;98881.53;;;18.07;54.68
56514;BME280;62152;52.078;8.414;2024-03-02T10:33:50;98883.44;;;18.17;54.36
56514;BME280;62152;52.078;8.414;2024-03-02T10:37:52;98878.81;;;18.00;54.91
56514;BME280;62152;52.078;8.414;2024-03-02T10:41:56;98880.44;;;17.87;54.61
56514;BME280;62152;52.078;8.414;2024-03-02T10:45:58;98874.88;;;17.97;53.71
56514;BME280;62152;52.078;8.414;2024-03-02T10:49:59;98865.50;;;17.95;53.78
56514;BME280;62152;52.078;8.414;2024-03-02T10:54:03;98868.25;;;17.95;52.52
56514;BME280;62152;52.078;8.414;2024-03-02T10:58:12;98858.47;;;17.94;52.65
56514;BME280;62152;52.078;8.414;2024-03-02T11:02:14;98861.56;;;17.96;52.41
56514;BME280;62152;52.078;8.414;2024-03-02T11:06:17;98851.34;;;18.03;52.43
56514;BME280;62152;52.078;8.414;2024-03-02T11:10:20;98852.91;;;18.04;52.19
56514;BME280;62152;52.078;8.414;2024-03-02T11:14:24;98863.53;;;17.99;52.31
56514;BME280;62152;52.078;8.414;2024-03-02T11:18:26;98865.47;;;18.06;52.12
56514;BME280;62152;52.078;8.414;2024-03-02T11:22:28;98867.81;;;18.07;52.07
56514;BME280;62152;52.078;8.414;2024-03-02T11:26:29;98875.25;;;18.10;52.06
56514;BME280;62152;52.078;8.414;2024-03-02T11:30:53;98871.69;;;18.17;52.10
56514;BME280;62152;52.078;8.414;2024-03-02T11:34:54;98864.66;;;18.16;51.21
56514;BME280;62152;52.078;8.414;2024-03-02T11:38:55;98857.59;;;18.11;50.80
56514;BME280;62152;52.078;8.414;2024-03-02T11:42:57;98861.53;;;18.14;50.29
56514;BME280;62152;52.078;8.414;2024-03-02T11:47:06;98860.34;;;18.11;50.21
56514;BME280;62152;52.078;8.414;2024-03-02T11:51:07;98869.34;;;18.15;49.70
56514;BME280;62152;52.078;8.414;2024-03-02T11:55:09;98868.94;;;18.17;49.66
56514;BME280;62152;52.078;8.414;2024-03-02T11:59:12;98860.34;;;18.15;50.19
56514;BME280;62152;52.078;8.414;2024-03-02T12:03:15;98859.13;;;18.26;49.68
56514;BME280;62152;52.078;8.414;2024-03-02T12:07:20;98850.84;;;18.30;49.52
56514;BME280;62152;52.078;8.414;2024-03-02T12:11:21;98852.06;;;18.25;49.58
56514;BME280;62152;52.078;8.414;2024-03-02T12:15:24;98848.94;;;18.23;49.28
56514;BME280;62152;52.078;8.414;2024-03-02T12:19:28;98856.75;;;18.25;49.37
56514;BME280;62152;52.078;8.414;2024-03-02T12:23:29;98843.44;;;18.23;50.04
56514;BME280;62152;52.078;8.414;2024-03-02T12:27:30;98845.44;;;18.19;50.11
56514;BME280;62152;52.078;8.414;2024-03-02T12:31:31;98847.78;;;18.17;50.08
56514;BME280;62152;52.078;8.414;2024-03-02T12:35:36;98834.47;;;18.16;50.26
56514;BME280;62152;52.078;8.414;2024-03-02T12:39:36;98828.97;;;18.16;49.52
56514;BME280;62152;52.078;8.414;2024-03-02T12:43:38;98843.44;;;18.23;49.35
56514;BME280;62152;52.078;8.414;2024-03-02T12:47:40;98835.19;;;18.27;49.07
56514;BME280;62152;52.078;8.414;2024-03-02T12:51:44;98829.31;;;18.25;49.26
56514;BME280;62152;52.078;8.414;2024-03-02T12:55:45;98833.59;;;18.29;49.23
56514;BME280;62152;52.078;8.414;2024-03-02T12:59:46;98818.31;;;18.28;49.19
56514;BME280;62152;52.078;8.414;2024-03-02T13:03:49;98813.63;;;18.29;49.58
56514;BME280;62152;52.078;8.414;2024-03-02T13:07:52;98817.91;;;18.30;49.59
56514;BME280;62152;52.078;8.414;2024-03-02T13:11:54;98816.72;;;18.35;49.79
56514;BME280;62152;52.078;8.414;2024-03-02T13:15:55;98822.63;;;18.33;50.13
56514;BME280;62152;52.078;8.414;2024-03-02T13:19:58;98808.91;;;18.33;50.06
56514;BME280;62152;52.078;8.414;2024-03-02T13:24:01;98804.56;;;18.36;50.09
56514;BME280;62152;52.078;8.414;2024-03-02T13:28:02;98815.91;;;18.38;50.53
56514;BME280;62152;52.078;8.414;2024-03-02T13:32:04;98808.09;;;18.40;50.52
56514;BME280;62152;52.078;8.414;2024-03-02T13:36:06;98806.13;;;18.40;50.54
56514;BME280;62152;52.078;8.414;2024-03-02T13:40:10;98798.66;;;18.41;50.73
56514;BME280;62152;52.078;8.414;2024-03-02T13:44:11;98802.19;;;18.41;50.99
56514;BME280;62152;52.078;8.414;2024-03-02T13:48:11;98808.44;;;18.42;50.92
56514;BME280;62152;52.078;8.414;2024-03-02T13:52:12;98799.81;;;18.43;51.13
56514;BME280;62152;52.078;8.414;2024-03-02T13:56:16;98789.25;;;18.42;51.11
56514;BME280;62152;52.078;8.414;2024-03-02T14:00:17;98792.72;;;18.46;51.41
56514;BME280;62152;52.078;8.414;2024-03-02T14:04:18;98806.44;;;18.46;51.79
56514;BME280;62152;52.078;8.414;2024-03-02T14:08:20;98787.22;;;18.49;52.21
56514;BME280;62152;52.078;8.414;2024-03-02T14:12:24;98790.38;;;18.48;52.33
56514;BME280;62152;52.078;8.414;2024-03-02T14:16:25;98787.22;;;18.53;52.46
56514;BME280;62152;52.078;8.414;2024-03-02T14:20:26;98777.44;;;18.48;52.68
56514;BME280;62152;52.078;8.414;2024-03-02T14:24:27;98765.63;;;18.51;52.47
56514;BME280;62152;52.078;8.414;2024-03-02T14:28:30;98774.28;;;18.50;52.28
56514;BME280;62152;52.078;8.414;2024-03-02T14:32:31;98769.19;;;18.48;52.33
56514;BME280;62152;52.078;8.414;2024-03-02T14:36:32;98764.06;;;18.50;52.32
56514;BME280;62152;52.078;8.414;2024-03-02T14:40:32;98763.34;;;18.46;51.99
56514;BME280;62152;52.078;8.414;2024-03-02T14:44:36;98771.16;;;18.48;51.85
56514;BME280;62152;52.078;8.414;2024-03-02T14:48:37;98761.69;;;18.52;51.56
56514;BME280;62152;52.078;8.414;2024-03-02T14:52:38;98768.00;;;18.53;51.88
56514;BME280;62152;52.078;8.414;2024-03-02T14:56:39;98766.47;;;18.45;52.03
56514;BME280;62152;52.078;8.414;2024-03-02T15:00:42;98761.84;;;18.35;52.34
56514;BME280;62152;52.078;8.414;2024-03-02T15:04:43;98758.72;;;18.29;52.55
56514;BME280;62152;52.078;8.414;2024-03-02T15:08:44;98768.94;;;18.25;52.74
56514;BME280;62152;52.078;8.414;2024-03-02T15:12:45;98768.16;;;18.24;52.82
56514;BME280;62152;52.078;8.414;2024-03-02T15:16:49;98760.72;;;18.21;52.63
56514;BME280;62152;52.078;8.414;2024-03-02T15:20:50;98762.66;;;18.24;52.84
56514;BME280;62152;52.078;8.414;2024-03-02T15:24:50;98760.69;;;18.25;52.76
56514;BME280;62152;52.078;8.414;2024-03-02T15:28:51;98761.88;;;18.24;52.88
56514;BME280;62152;52.078;8.414;2024-03-02T15:32:54;98756.00;;;18.25;52.62
56514;BME280;62152;52.078;8.414;2024-03-02T15:36:55;98765.81;;;18.26;52.58
56514;BME280;62152;52.078;8.414;2024-03-02T15:40:56;98763.44;;;18.25;52.90
56514;BME280;62152;52.078;8.414;2024-03-02T15:44:57;98758.78;;;18.22;52.93
56514;BME280;62152;52.078;8.414;2024-03-02T15:49:00;98760.31;;;18.23;52.96
56514;BME280;62152;52.078;8.414;2024-03-02T15:53:01;98758.00;;;18.21;53.01
56514;BME280;62152;52.078;8.414;2024-03-02T15:57:02;98770.53;;;18.22;52.78
56514;BME280;62152;52.078;8.414;2024-03-02T16:01:03;98766.22;;;18.21;53.02
56514;BME280;62152;52.078;8.414;2024-03-02T16:05:07;98767.00;;;18.22;52.86
56514;BME280;62152;52.078;8.414;2024-03-02T16:09:08;98763.47;;;18.21;52.94
56514;BME280;62152;52.078;8.414;2024-03-02T16:13:09;98769.38;;;18.20;53.15
56514;BME280;62152;52.078;8.414;2024-03-02T16:17:10;98759.59;;;18.19;52.94
56514;BME280;62152;52.078;8.414;2024-03-02T16:21:13;98760.75;;;18.18;53.03
56514;BME280;62152;52.078;8.414;2024-03-02T16:25:14;98768.19;;;18.17;53.16
56514;BME280;62152;52.078;8.414;2024-03-02T16:29:15;98764.31;;;18.15;53.28
56514;BME280;62152;52.078;8.414;2024-03-02T16:33:15;98777.25;;;18.14;53.14
56514;BME280;62152;52.078;8.414;2024-03-02T16:37:19;98776.88;;;18.12;53.21
56514;BME280;62152;52.078;8.414;2024-03-02T16:41:19;98776.06;;;18.12;53.23
56514;BME280;62152;52.078;8.414;2024-03-02T16:45:20;98770.97;;;18.10;53.50
56514;BME280;62152;52.078;8.414;2024-03-02T16:49:21;98781.59;;;18.08;53.54
56514;BME280;62152;52.078;8.414;2024-03-02T16:53:24;98774.16;;;18.05;53.42
56514;BME280;62152;52.078;8.414;2024-03-02T16:57:25;98787.88;;;18.05;53.62
56514;BME280;62152;52.078;8.414;2024-03-02T17:01:26;98789.44;;;18.02;53.46
56514;BME280;62152;52.078;8.414;2024-03-02T17:05:27;98790.22;;;18.03;53.79
56514;BME280;62152;52.078;8.414;2024-03-02T17:09:30;98792.47;;;18.22;54.80
56514;BME280;62152;52.078;8.414;2024-03-02T17:13:31;98798.25;;;18.39;54.86
56514;BME280;62152;52.078;8.414;2024-03-02T17:17:32;98798.25;;;18.39;55.11
56514;BME280;62152;52.078;8.414;2024-03-02T17:21:32;98801.41;;;18.37;54.99
56514;BME280;62152;52.078;8.414;2024-03-02T17:25:36;98797.44;;;18.45;54.97
56514;BME280;62152;52.078;8.414;2024-03-02T17:29:37;98809.59;;;18.48;55.98
56514;BME280;62152;52.078;8.414;2024-03-02T17:33:38;98804.88;;;18.48;57.12
56514;BME280;62152;52.078;8.414;2024-03-02T17:37:38;98817.38;;;18.56;59.44
56514;BME280;62152;52.078;8.414;2024-03-02T17:41:42;98819.72;;;18.58;59.97
56514;BME280;62152;52.078;8.414;2024-03-02T17:45:43;98817.47;;;18.42;60.16
56514;BME280;62152;52.078;8.414;2024-03-02T17:49:43;98820.22;;;18.42;60.35
56514;BME280;62152;52.078;8.414;2024-03-02T17:53:44;98826.88;;;18.41;60.49
56514;BME280;62152;52.078;8.414;2024-03-02T17:57:47;98823.41;;;18.34;60.40
56514;BME280;62152;52.078;8.414;2024-03-02T18:01:48;98825.38;;;18.29;60.51
56514;BME280;62152;52.078;8.414;2024-03-02T18:05:49;98819.50;;;18.27;60.17
56514;BME280;62152;52.078;8.414;2024-03-02T18:09:50;98826.16;;;18.30;60.19
56514;BME280;62152;52.078;8.414;2024-03-02T18:13:53;98825.78;;;18.28;60.17
56514;BME280;62152;52.078;8.414;2024-03-02T18:17:54;98823.81;;;18.28;60.06
56514;BME280;62152;52.078;8.414;2024-03-02T18:21:55;98823.44;;;18.26;59.78
56514;BME280;62152;52.078;8.414;2024-03-02T18:25:56;98826.84;;;18.45;59.90
56514;BME280;62152;52.078;8.414;2024-03-02T18:29:59;98826.44;;;18.50;59.89
56514;BME280;62152;52.078;8.414;2024-03-02T18:34:00;98828.41;;;18.53;59.89
56514;BME280;62152;52.078;8.414;2024-03-02T18:38:00;98834.25;;;18.55;59.93
56514;BME280;62152;52.078;8.414;2024-03-02T18:42:02;98829.56;;;18.55;60.20
56514;BME280;62152;52.078;8.414;2024-03-02T18:46:06;98827.59;;;18.56;60.33
56514;BME280;62152;52.078;8.414;2024-03-02T18:50:08;98822.09;;;18.56;60.33
56514;BME280;62152;52.078;8.414;2024-03-02T18:54:09;98831.47;;;18.58;60.31
56514;BME280;62152;52.078;8.414;2024-03-02T18:58:10;98829.13;;;18.57;60.44
56514;BME280;62152;52.078;8.414;2024-03-02T19:02:14;98835.00;;;18.63;60.57
56514;BME280;62152;52.078;8.414;2024-03-02T19:06:15;98825.19;;;18.62;60.29
56514;BME280;62152;52.078;8.414;2024-03-02T19:10:16;98835.78;;;18.63;60.46
56514;BME280;62152;52.078;8.414;2024-03-02T19:14:17;98828.34;;;18.60;60.38
56514;BME280;62152;52.078;8.414;2024-03-02T19:18:20;98828.72;;;18.62;60.23
56514;BME280;62152;52.078;8.414;2024-03-02T19:22:21;98828.34;;;18.60;60.13
56514;BME280;62152;52.078;8.414;2024-03-02T19:26:22;98821.25;;;18.63;60.12
56514;BME280;62152;52.078;8.414;2024-03-02T19:30:24;98825.56;;;18.64;59.88
56514;BME280;62152;52.078;8.414;2024-03-02T19:34:27;98826.75;;;18.66;59.80
56514;BME280;62152;52.078;8.414;2024-03-02T19:38:28;98825.16;;;18.65;59.78
56514;BME280;62152;52.078;8.414;2024-03-02T19:42:29;98838.13;;;18.65;59.64
56514;BME280;62152;52.078;8.414;2024-03-02T19:46:30;98836.56;;;18.64;59.48
56514;BME280;62152;52.078;8.414;2024-03-02T19:50:33;98844.38;;;18.65;59.41
56514;BME280;62152;52.078;8.414;2024-03-02T19:54:34;98834.59;;;18.64;59.61
56514;BME280;62152;52.078;8.414;2024-03-02T19:58:34;98831.09;;;18.60;59.13
56514;BME280;62152;52.078;8.414;2024-03-02T20:02:35;98834.31;;;18.48;59.49
56514;BME280;62152;52.078;8.414;2024-03-02T20:06:39;98838.66;;;18.42;59.40
56514;BME280;62152;52.078;8.414;2024-03-02T20:10:39;98831.19;;;18.39;59.24
56514;BME280;62152;52.078;8.414;2024-03-02T20:14:40;98830.44;;;18.35;59.26
56514;BME280;62152;52.078;8.414;2024-03-02T20:18:41;98833.59;;;18.33;59.10
56514;BME280;62152;52.078;8.414;2024-03-02T20:22:44;98830.88;;;18.29;59.04
56514;BME280;62152;52.078;8.414;2024-03-02T20:26:45;98813.66;;;18.25;59.09
56514;BME280;62152;52.078;8.414;2024-03-02T20:30:46;98811.28;;;18.24;58.85
56514;BME280;62152;52.078;8.414;2024-03-02T20:34:46;98813.25;;;18.23;59.04
56514;BME280;62152;52.078;8.414;2024-03-02T20:38:50;98816.03;;;18.20;59.10
56514;BME280;62152;52.078;8.414;2024-03-02T20:42:51;98814.84;;;18.21;58.90
56514;BME280;62152;52.078;8.414;2024-03-02T20:46:52;98812.50;;;18.19;58.82
56514;BME280;62152;52.078;8.414;2024-03-02T20:50:53;98813.28;;;18.16;58.62
56514;BME280;62152;52.078;8.414;2024-03-02T20:54:56;98811.72;;;18.15;58.83
56514;BME280;62152;52.078;8.414;2024-03-02T20:58:57;98804.69;;;18.14;58.64
56514;BME280;62152;52.078;8.414;2024-03-02T21:02:58;98799.97;;;18.15;58.49
56514;BME280;62152;52.078;8.414;2024-03-02T21:06:58;98802.72;;;18.11;58.71
56514;BME280;62152;52.078;8.414;2024-03-02T21:11:02;98798.41;;;18.10;58.52
56514;BME280;62152;52.078;8.414;2024-03-02T21:15:04;98790.19;;;18.10;58.38
56514;BME280;62152;52.078;8.414;2024-03-02T21:19:05;98787.84;;;18.09;58.55